PST,Max TemperatureF,Mean TemperatureF,Min TemperatureF,Max Dew PointF,MeanDew PointF,Min DewpointF,Max Humidity, Mean Humidity, Min Humidity, Max Sea Level PressureIn, Mean Sea Level PressureIn, Min Sea Level PressureIn, Max VisibilityMiles, Mean VisibilityMiles, Min VisibilityMiles, Max Wind SpeedMPH, Mean Wind SpeedMPH, Max Gust SpeedMPH,PrecipitationIn, CloudCover, Events, WindDirDegrees
2012-1-1,65,50,34,41,36,32,96,68,40,30.28,30.21,30.16,4,3,2,6,1,,0.00,1,,97
2012-1-2,65,50,35,44,36,30,92,62,31,30.30,30.24,30.19,10,5,3,15,4,17,0.00,4,,299
2012-1-3,56,47,38,46,41,36,100,81,61,30.38,30.32,30.29,5,2,0,9,2,12,0.00,3,Fog,132
2012-1-4,62,49,35,45,40,34,100,74,48,30.40,30.36,30.30,4,2,0,10,3,13,0.00,2,Fog,123
2012-1-5,64,52,39,44,41,37,92,68,44,30.34,30.24,30.15,4,3,2,8,2,,0.00,1,,134
2012-1-6,64,51,38,43,40,36,92,68,43,30.18,30.12,30.08,10,5,2,10,2,,0.00,2,,303
2012-1-7,56,46,35,41,38,34,100,78,55,30.21,30.16,30.12,7,3,0,8,2,10,0.00,2,Fog,96
2012-1-8,63,50,36,40,36,32,92,63,34,30.28,30.23,30.19,10,5,2,7,2,,0.00,2,,161
2012-1-9,66,51,35,35,33,30,82,56,29,30.28,30.23,30.17,7,6,5,6,1,16,0.00,1,,69
2012-1-10,66,51,35,37,33,28,76,53,29,30.19,30.14,30.08,8,6,4,8,2,12,0.00,1,,305
2012-1-11,63,49,35,37,34,30,82,58,34,30.16,30.12,30.05,7,4,2,6,1,,0.00,3,,97
2012-1-12,63,49,34,36,33,30,89,63,36,30.17,30.11,30.06,6,4,3,7,1,16,0.00,0,,2
2012-1-13,67,51,34,37,31,27,82,53,24,30.27,30.21,30.18,7,5,2,7,2,17,0.00,1,,11
2012-1-14,68,51,34,32,28,25,75,49,22,30.25,30.17,30.10,8,6,4,7,2,,0.00,3,,113
2012-1-15,66,52,37,36,28,19,70,44,17,30.10,30.05,29.98,10,8,5,22,6,24,0.00,3,,65
2012-1-16,52,42,32,30,24,14,76,50,24,30.34,30.25,30.12,10,10,10,10,5,14,0.00,2,,296
2012-1-17,53,41,28,25,20,17,69,48,26,30.43,30.38,30.34,10,10,7,7,1,9,0.00,2,,83
2012-1-18,57,44,30,26,24,22,78,53,27,30.43,30.37,30.28,10,9,5,8,2,,0.00,2,,39
2012-1-19,54,43,31,32,26,22,70,53,35,30.28,30.19,30.10,8,6,4,10,2,12,0.00,6,Rain,359
2012-1-20,60,53,45,54,36,27,86,59,31,30.17,30.06,29.88,10,7,4,13,8,16,0.12,8,Rain,115
2012-1-21,60,55,50,53,45,37,93,72,51,30.19,29.99,29.79,10,8,2,25,14,33,0.79,4,Rain,146
2012-1-22,55,48,40,43,40,37,92,76,59,30.22,30.15,30.00,10,10,10,14,5,20,0.01,7,Rain,118
2012-1-23,61,53,44,51,46,42,86,79,72,30.15,29.96,29.84,10,9,3,21,9,25,0.45,7,Rain,63
2012-1-24,53,46,39,45,43,39,100,86,71,30.45,30.32,30.17,9,3,0,10,1,13,0.00,6,Fog,142
2012-1-25,60,49,38,46,42,37,100,79,57,30.48,30.41,30.35,10,5,1,7,1,,0.00,1,,194
2012-1-26,61,51,40,51,45,39,93,77,60,30.37,30.30,30.21,6,4,1,8,1,13,0.00,4,,270
2012-1-27,56,54,52,52,50,47,100,89,77,30.30,30.23,30.18,10,4,1,10,5,15,0.00,8,,299
2012-1-28,65,56,46,48,45,43,89,67,44,30.36,30.31,30.27,9,7,5,10,1,,0.00,3,,342
2012-1-29,67,54,40,47,43,37,93,68,42,30.30,30.23,30.14,10,4,0,8,2,,0.00,3,Fog,317
2012-1-30,61,50,39,50,44,38,93,74,55,30.14,30.07,30.01,8,4,3,8,1,,0.00,6,,146
2012-1-31,63,54,44,48,45,43,100,74,48,30.20,30.12,30.02,9,3,0,14,3,17,0.00,5,Fog,325